MDT,Max TemperatureF,Mean TemperatureF,Min TemperatureF,Max Dew PointF,MeanDew PointF,Min DewpointF,Max Humidity, Mean Humidity, Min Humidity, Max Sea Level PressureIn, Mean Sea Level PressureIn, Min Sea Level PressureIn, Max VisibilityMiles, Mean VisibilityMiles, Min VisibilityMiles, Max Wind SpeedMPH, Mean Wind SpeedMPH, Max Gust SpeedMPH,PrecipitationIn, CloudCover, Events, WindDirDegrees
2013-6-1,82,65,47,42,38,31,71,43,15,30.20,30.07,29.88,10,10,10,13,4,17,0.00,0,,279
2013-6-2,81,69,56,42,37,31,59,39,19,29.94,29.84,29.78,10,10,10,28,14,37,0.00,0,,318
2013-6-3,79,64,48,43,38,33,71,45,19,30.04,29.98,29.90,10,10,10,18,5,22,0.00,0,,311
2013-6-4,85,70,55,40,34,28,51,33,14,30.05,29.99,29.95,10,10,10,18,5,22,0.00,0,,329
2013-6-5,89,70,50,48,42,36,71,44,17,30.07,29.99,29.89,10,10,10,12,2,31,0.00,0,,342
2013-6-6,94,75,56,49,46,39,67,41,15,29.97,29.90,29.81,10,10,10,13,4,16,0.00,0,,350
2013-6-7,97,81,64,50,43,30,60,36,11,29.93,29.87,29.79,10,10,10,25,12,31,0.00,0,,312
2013-6-8,91,77,63,45,35,21,43,26,9,30.01,29.94,29.86,10,10,10,21,9,26,0.00,0,,317
2013-6-9,93,75,57,50,42,35,57,37,17,29.92,29.82,29.67,10,10,10,25,7,33,0.00,0,,307
2013-6-10,92,77,62,48,29,22,35,22,9,29.75,29.67,29.57,10,10,2,26,10,33,T,1,Rain-Thunderstorm,325
2013-6-11,88,75,61,39,32,27,32,24,15,29.84,29.76,29.66,10,10,10,28,12,36,0.00,1,,283
2013-6-12,83,69,55,36,34,30,43,30,17,29.98,29.90,29.82,10,10,10,29,15,38,0.00,1,,320
2013-6-13,76,64,51,45,37,29,50,34,18,30.14,30.01,29.93,10,10,7,31,14,37,0.05,4,Rain-Thunderstorm,297
2013-6-14,73,59,45,42,36,28,71,45,19,30.25,30.16,30.06,10,10,2,13,5,16,0.01,1,,308
2013-6-15,84,63,42,40,34,23,76,43,10,30.06,29.99,29.88,10,10,10,8,3,13,0.00,0,,342
2013-6-16,92,70,47,48,37,26,56,33,10,29.95,29.89,29.82,10,10,10,20,5,26,0.00,0,,218
2013-6-17,93,79,65,48,40,32,41,27,12,29.97,29.85,29.69,10,10,10,25,6,30,0.00,0,,307
2013-6-18,87,74,61,47,43,40,48,35,21,29.82,29.73,29.64,10,9,2,39,11,46,T,1,,310
2013-6-19,61,55,48,49,44,40,86,70,53,30.07,29.86,29.68,10,10,5,24,9,30,0.20,7,Rain,315
2013-6-20,71,58,45,46,42,36,92,60,27,30.08,30.04,29.96,10,10,10,10,2,14,0.01,4,,180
2013-6-21,69,60,50,46,40,35,72,52,32,30.09,30.06,30.01,10,10,10,18,9,24,T,4,Rain,288
2013-6-22,76,61,45,49,42,37,82,54,25,30.12,30.04,29.92,10,10,10,12,5,15,0.00,0,,262
2013-6-23,87,68,49,53,43,38,77,49,21,29.91,29.74,29.56,10,10,10,22,5,29,T,2,Rain,335
2013-6-24,75,67,58,58,55,49,87,67,47,29.78,29.68,29.63,10,10,6,22,5,29,0.09,6,Rain-Thunderstorm,169
2013-6-25,68,62,55,58,56,53,93,81,68,29.95,29.88,29.79,10,10,9,12,3,16,0.24,6,Rain,147
2013-6-26,84,72,60,60,57,54,90,64,37,30.07,30.01,29.94,10,9,2,16,4,22,0.07,6,Rain,317
2013-6-27,94,76,58,62,56,50,87,55,23,30.16,30.09,30.02,10,10,10,15,3,24,0.00,0,,299
2013-6-28,103,83,62,63,54,43,84,49,13,30.14,30.03,29.88,10,10,10,12,3,14,0.00,0,,312
2013-6-29,104,87,70,62,57,48,60,39,17,29.97,29.86,29.76,10,10,10,28,9,33,0.00,0,,307
2013-6-30,106,90,74,63,56,48,58,37,16,29.98,29.89,29.78,10,10,10,21,7,25,0.00,0,,332